Atterbury, IN

3:01 AM EDT on October 23, 2014 (GMT -0400)
Shelbyville Municipal | Change Station
CLOSE
Current Station
Airport
Location: Shelbyville,
Elevation: 804 ft
Nearby Weather Stations
Active Advisory: Frost Advisory

Elev 804 ft 39.58 °N, 85.80 °W | Updated 8 minutes ago

Clear
Clear
35 °F
Feels Like 35 °F
N
0
Wind Variable Wind from North

Today
High -- | Low -- °F
--% Chance of Precip.
Yesterday
High -- | Low -- °F
Precip. -- in
8:02 AM 6:53 PM
Waning Crescent, 0% visible
Pressure 30.29 in
Visibility 1.0 miles
Clouds Clear
Dew Point 33 °F
Humidity 92%
Rainfall 0.00 in
Snow Depth Not available.
UV 0 out of 12
Pollen .90 out of 12
Ozone Good
PM2.5 Good
Flu Activity Sporadic
METAR KGEZ 230653Z AUTO 00000KT 1SM BR CLR 02/01 A3027 RMK AO2 SLP255 T00170006

More Conditions Fewer Conditions

Pressure 30.29 in
Visibility 1.0 miles
Clouds Clear
Dew Point 33 °F
Humidity 92%
Rainfall 0.00 in
Snow Depth Not available.
UV 0 out of 12
Pollen .90 out of 12
Ozone Good
PM2.5 Good
Flu Activity Sporadic
METAR KGEZ 230653Z AUTO 00000KT 1SM BR CLR 02/01 A3027 RMK AO2 SLP255 T00170006

More Conditions Fewer Conditions

10-Day Weather Forecast

Almanac

Astronomy

Oct. 23, 2014 Rise Set
Actual Time 8:02 AM EDT 6:53 PM EDT
Civil Twilight 7:34 AM EDT 7:21 PM EDT
Nautical Twilight 7:03 AM EDT 7:52 PM EDT
Astronomical Twilight 6:32 AM EDT 8:23 PM EDT
Moon 7:41 AM EDT 6:54 PM EDT
Length of Visible Light 11h 46m
Length of Day
10h 51m
Tomorrow will be 2m 23s shorter.
Waning Crescent, 0% of the Moon is Illuminated
Today
Waning Crescent
Oct 23
New
Oct 30
First Quarter
Nov 6
Full
Nov 14
Last Quarter

Today's Extremes

State Highs State Lows

Community

WunderPhotos

Upload Photos

1,764,194 photos uploaded!

Nearby

Air Quality

  Air Quality AQ Index Pollutant
Yesterday Good
PM10
Yesterday Good
OZONE
Current Good
PM2.5
Current Good
OZONE
Thursday Moderate
PM2.5

Snow Depth

Station Depth Elevation
No new snow has been reported.

Earthquake Activity

City Distance Mag. Time & Date
No recent earthquake activity has been reported nearby.
Minimum magnitude displayed is 2.5.

Coastal Water Temperatures

Place Temperature
No Stations Reporting

Nearby Weather Stations